createdAt,value
2023-03-19T00:00:36.694Z,30.55
2023-03-19T00:03:03.514Z,26.77
2023-03-19T00:05:30.309Z,26.35
2023-03-19T00:07:57.049Z,26.58
2023-03-19T00:10:23.721Z,22.05
2023-03-19T00:12:50.600Z,29.33
2023-03-19T00:15:17.492Z,27.20
2023-03-19T00:17:44.254Z,27.50
2023-03-19T00:20:12.543Z,21.15
2023-03-19T00:22:39.849Z,27.88
2023-03-19T00:25:08.138Z,19.15
2023-03-19T00:27:35.319Z,24.27
2023-03-19T00:30:02.588Z,20.85
2023-03-19T00:32:30.150Z,23.23
2023-03-19T00:34:57.396Z,27.70
2023-03-19T00:37:24.082Z,27.15
2023-03-19T00:39:50.832Z,23.05
2023-03-19T00:42:18.170Z,23.52
2023-03-19T00:44:45.059Z,21.25
2023-03-19T00:47:12.363Z,19.25
2023-03-19T00:49:39.100Z,19.73
2023-03-19T00:52:05.898Z,24.30
2023-03-19T00:54:33.057Z,22.83
2023-03-19T00:56:59.826Z,19.48
2023-03-19T00:59:26.822Z,20.55
2023-03-19T01:01:53.541Z,23.88
2023-03-19T01:04:20.460Z,30.17
2023-03-19T01:06:48.221Z,29.60
2023-03-19T01:09:15.253Z,20.00
2023-03-19T01:11:41.910Z,21.25
2023-03-19T01:14:09.007Z,17.10
2023-03-19T01:16:35.901Z,17.92
2023-03-19T01:19:03.567Z,24.95
2023-03-19T01:21:33.943Z,26.15
2023-03-19T01:24:01.128Z,19.25
2023-03-19T01:26:28.906Z,23.15
2023-03-19T01:29:03.243Z,22.10
2023-03-19T01:31:30.310Z,18.85
2023-03-19T01:34:32.578Z,23.38
2023-03-19T01:37:07.615Z,23.83
2023-03-19T01:39:34.463Z,23.77
2023-03-19T01:42:06.744Z,24.63
2023-03-19T01:44:38.324Z,24.23
2023-03-19T01:47:35.283Z,21.73
2023-03-19T01:50:21.245Z,24.48
2023-03-19T01:52:51.198Z,19.85
2023-03-19T01:55:33.413Z,20.88
2023-03-19T01:58:11.688Z,22.58
2023-03-19T02:00:58.346Z,22.90
2023-03-19T02:03:26.733Z,24.77
2023-03-19T02:06:14.295Z,20.92
2023-03-19T02:08:41.677Z,21.00
2023-03-19T02:11:09.773Z,23.52
2023-03-19T02:13:36.620Z,22.33
2023-03-19T02:16:04.236Z,21.08
2023-03-19T02:18:31.533Z,19.58
2023-03-19T02:21:05.142Z,23.35
2023-03-19T02:23:37.578Z,21.63
2023-03-19T02:26:18.341Z,20.38
2023-03-19T02:28:49.549Z,20.67
2023-03-19T02:31:21.859Z,19.52
2023-03-19T02:34:23.930Z,21.67
2023-03-19T02:36:58.018Z,20.52
2023-03-19T02:39:30.887Z,20.73
2023-03-19T02:41:58.168Z,20.10
2023-03-19T02:44:26.984Z,28.98
2023-03-19T02:46:53.657Z,21.00
2023-03-19T02:49:20.334Z,16.08
2023-03-19T02:51:47.201Z,23.38
2023-03-19T02:54:14.076Z,14.80
2023-03-19T02:56:40.959Z,20.38
2023-03-19T02:59:07.639Z,15.15
2023-03-19T03:01:34.621Z,16.50
2023-03-19T03:04:01.321Z,16.55
2023-03-19T03:06:28.109Z,19.67
2023-03-19T03:08:55.182Z,21.45
2023-03-19T03:11:22.794Z,17.73
2023-03-19T03:13:49.613Z,20.52
2023-03-19T03:16:17.385Z,18.40
2023-03-19T03:18:44.139Z,16.20
2023-03-19T03:21:11.664Z,17.33
2023-03-19T03:23:38.439Z,25.50
2023-03-19T03:26:06.734Z,22.05
2023-03-19T03:28:33.449Z,23.67
2023-03-19T03:31:00.991Z,20.27
2023-03-19T03:33:28.069Z,15.43
2023-03-19T03:35:55.152Z,15.25
2023-03-19T03:38:21.977Z,17.50
2023-03-19T03:40:55.160Z,22.08
2023-03-19T03:43:25.679Z,20.60
2023-03-19T03:45:53.484Z,20.70
2023-03-19T03:48:21.971Z,22.95
2023-03-19T03:50:49.252Z,19.67
2023-03-19T03:53:20.066Z,23.63
2023-03-19T03:55:46.759Z,17.60
2023-03-19T03:58:14.094Z,19.40
2023-03-19T04:00:41.196Z,21.27
2023-03-19T04:03:08.824Z,18.80
2023-03-19T04:05:36.498Z,24.00
2023-03-19T04:08:03.749Z,19.30
2023-03-19T04:10:31.262Z,25.42
2023-03-19T04:12:58.111Z,13.35
2023-03-19T04:15:27.741Z,18.13
2023-03-19T04:17:56.702Z,24.17
2023-03-19T04:20:24.020Z,19.33
2023-03-19T04:22:50.906Z,21.50
2023-03-19T04:25:18.417Z,16.73
2023-03-19T04:27:46.145Z,28.15
2023-03-19T04:30:13.149Z,22.15
2023-03-19T04:32:39.901Z,18.30
2023-03-19T04:35:08.085Z,19.50
2023-03-19T04:37:35.074Z,20.15
2023-03-19T04:40:02.120Z,15.63
2023-03-19T04:42:36.183Z,19.67
2023-03-19T04:45:11.020Z,21.67
2023-03-19T04:47:37.855Z,19.33
2023-03-19T04:50:06.800Z,20.42
2023-03-19T04:52:37.213Z,19.00
2023-03-19T04:55:05.726Z,24.10
2023-03-19T04:57:43.395Z,18.60
2023-03-19T05:00:10.909Z,23.58
2023-03-19T05:02:40.203Z,17.77
2023-03-19T05:05:08.502Z,18.40
2023-03-19T05:07:36.314Z,21.42
2023-03-19T05:10:04.956Z,16.10
2023-03-19T05:12:31.991Z,21.30
2023-03-19T05:14:59.282Z,23.05
2023-03-19T05:17:49.875Z,16.35
2023-03-19T05:20:21.774Z,19.52
2023-03-19T05:22:54.738Z,17.80
2023-03-19T05:25:28.892Z,16.08
2023-03-19T05:27:56.409Z,25.50
2023-03-19T05:30:24.914Z,17.95
2023-03-19T05:33:05.828Z,20.80
2023-03-19T05:35:36.971Z,16.17
2023-03-19T05:38:09.424Z,22.90
2023-03-19T05:40:36.724Z,17.70
2023-03-19T05:43:17.017Z,21.90
2023-03-19T05:45:43.991Z,22.90
2023-03-19T05:48:19.342Z,18.92
2023-03-19T05:50:48.120Z,18.13
2023-03-19T05:53:23.264Z,15.57
2023-03-19T05:56:08.535Z,14.27
2023-03-19T05:58:46.352Z,30.08
2023-03-19T06:01:16.867Z,19.92
2023-03-19T06:03:44.519Z,17.77
2023-03-19T06:06:12.228Z,25.92
2023-03-19T06:08:43.366Z,21.30
2023-03-19T06:11:33.072Z,17.83
2023-03-19T06:14:18.259Z,30.90
2023-03-19T06:16:59.192Z,14.95
2023-03-19T06:19:26.259Z,23.52
2023-03-19T06:21:53.052Z,24.92
2023-03-19T06:24:20.403Z,18.23
2023-03-19T06:26:47.111Z,19.75
2023-03-19T06:29:15.184Z,16.85
2023-03-19T06:31:45.166Z,18.58
2023-03-19T06:34:19.339Z,16.27
2023-03-19T06:36:46.487Z,21.38
2023-03-19T06:39:16.577Z,19.67
2023-03-19T06:41:43.358Z,22.90
2023-03-19T06:44:17.017Z,20.98
2023-03-19T06:46:43.783Z,17.27
2023-03-19T06:49:10.444Z,23.90
2023-03-19T06:51:37.226Z,14.63
2023-03-19T06:54:03.978Z,19.58
2023-03-19T06:56:30.750Z,21.73
2023-03-19T06:58:57.433Z,17.02
2023-03-19T07:01:24.237Z,20.15
2023-03-19T07:03:51.081Z,22.00
2023-03-19T07:06:19.814Z,25.00
2023-03-19T07:08:47.363Z,23.35
2023-03-19T07:11:14.440Z,20.23
2023-03-19T07:13:41.130Z,22.30
2023-03-19T07:16:07.957Z,18.83
2023-03-19T07:18:34.772Z,17.60
2023-03-19T07:21:01.687Z,19.88
2023-03-19T07:23:28.463Z,18.70
2023-03-19T07:25:55.560Z,17.95
2023-03-19T07:28:23.072Z,15.15
2023-03-19T07:30:52.591Z,19.77
2023-03-19T07:33:20.312Z,20.17
2023-03-19T07:35:47.041Z,20.50
2023-03-19T07:38:14.707Z,20.83
2023-03-19T07:40:45.540Z,19.83
2023-03-19T07:43:18.164Z,18.17
2023-03-19T07:45:44.967Z,19.48
2023-03-19T07:48:12.717Z,24.20
2023-03-19T07:50:39.672Z,24.40
2023-03-19T07:53:06.346Z,26.30
2023-03-19T07:55:33.118Z,24.75
2023-03-19T07:58:00.007Z,19.23
2023-03-19T08:00:27.374Z,19.15
2023-03-19T08:02:54.111Z,17.83
2023-03-19T08:05:20.855Z,19.88
2023-03-19T08:07:49.387Z,19.05
2023-03-19T08:10:16.262Z,22.48
2023-03-19T08:12:42.940Z,23.40
2023-03-19T08:15:11.051Z,26.50
2023-03-19T08:17:38.438Z,18.73
2023-03-19T08:20:10.734Z,21.08
2023-03-19T08:22:37.941Z,31.03
2023-03-19T08:25:06.854Z,28.17
2023-03-19T08:27:35.733Z,26.23
2023-03-19T08:30:04.659Z,25.45
2023-03-19T08:32:31.488Z,31.48
2023-03-19T08:34:58.229Z,20.67
2023-03-19T08:37:24.988Z,23.70
2023-03-19T08:39:52.275Z,23.67
2023-03-19T08:42:22.783Z,26.63
2023-03-19T08:44:49.772Z,23.92
2023-03-19T08:47:16.706Z,23.40
2023-03-19T08:49:43.455Z,23.90
2023-03-19T08:52:10.174Z,20.50
2023-03-19T08:54:36.943Z,27.25
2023-03-19T08:57:03.863Z,30.42
2023-03-19T08:59:33.804Z,24.02
2023-03-19T09:02:00.917Z,26.52
2023-03-19T09:04:27.752Z,28.02
2023-03-19T09:06:54.492Z,32.85
2023-03-19T09:09:22.486Z,27.58
2023-03-19T09:11:49.156Z,26.48
2023-03-19T09:14:16.769Z,28.58
2023-03-19T09:16:43.838Z,28.23
2023-03-19T09:19:10.549Z,23.90
2023-03-19T09:21:37.260Z,27.98
2023-03-19T09:24:04.597Z,33.80
2023-03-19T09:26:31.331Z,27.50
2023-03-19T09:28:59.569Z,26.33
2023-03-19T09:31:29.054Z,28.33
2023-03-19T09:33:56.355Z,31.80
2023-03-19T09:36:23.063Z,30.05
2023-03-19T09:38:49.802Z,25.42
2023-03-19T09:41:31.663Z,32.92
2023-03-19T09:44:21.328Z,34.47
2023-03-19T09:47:09.808Z,26.90
2023-03-19T09:49:39.842Z,33.20
2023-03-19T09:52:09.430Z,26.95
2023-03-19T09:54:49.738Z,31.65
2023-03-19T09:57:17.453Z,31.90
2023-03-19T09:59:44.498Z,29.17
2023-03-19T10:02:40.736Z,25.17
2023-03-19T10:05:18.636Z,30.77
2023-03-19T10:07:54.651Z,32.40
2023-03-19T10:10:50.729Z,30.83
2023-03-19T10:13:46.702Z,23.80
2023-03-19T10:16:21.115Z,27.80
2023-03-19T10:18:50.819Z,25.00
2023-03-19T10:21:26.992Z,27.55
2023-03-19T10:23:58.501Z,33.60
2023-03-19T10:26:31.585Z,32.30
2023-03-19T10:29:06.077Z,30.05
2023-03-19T10:32:00.671Z,22.58
2023-03-19T10:34:37.744Z,23.52
2023-03-19T10:37:14.903Z,25.00
2023-03-19T10:39:44.216Z,22.67
2023-03-19T10:42:40.079Z,26.60
2023-03-19T10:45:27.349Z,18.35
2023-03-19T10:47:56.491Z,20.77
2023-03-19T10:50:28.536Z,25.02
2023-03-19T10:53:20.895Z,21.23
2023-03-19T10:55:55.973Z,21.75
2023-03-19T10:58:27.913Z,23.77
2023-03-19T11:01:02.961Z,17.52
2023-03-19T11:03:40.997Z,17.00
2023-03-19T11:06:07.876Z,22.27
2023-03-19T11:08:36.976Z,16.95
2023-03-19T11:11:03.981Z,16.48
2023-03-19T11:13:34.230Z,14.88
2023-03-19T11:16:01.156Z,21.95
2023-03-19T11:18:30.148Z,19.90
2023-03-19T11:21:02.856Z,14.80
2023-03-19T11:23:31.412Z,17.00
2023-03-19T11:26:04.633Z,15.40
2023-03-19T11:28:34.316Z,14.80
2023-03-19T11:31:41.542Z,19.58
2023-03-19T11:34:24.056Z,13.40
2023-03-19T11:37:15.299Z,17.63
2023-03-19T11:40:13.158Z,17.15
2023-03-19T11:43:03.441Z,10.77
2023-03-19T11:45:52.137Z,15.25
2023-03-19T11:48:19.352Z,18.90
2023-03-19T11:51:27.290Z,14.60
2023-03-19T11:54:22.589Z,12.77
2023-03-19T11:57:09.709Z,17.10
2023-03-19T11:59:45.284Z,9.60
2023-03-19T12:02:24.575Z,13.10
2023-03-19T12:05:15.418Z,14.98
2023-03-19T12:07:45.043Z,9.70
2023-03-19T12:10:26.652Z,13.30
2023-03-19T12:13:12.383Z,15.40
2023-03-19T12:16:11.295Z,12.38
2023-03-19T12:18:47.956Z,12.50
2023-03-19T12:21:53.161Z,8.00
2023-03-19T12:24:42.651Z,15.82
2023-03-19T12:27:36.475Z,12.95
2023-03-19T12:30:09.335Z,15.30
2023-03-19T12:33:08.512Z,11.05
2023-03-19T12:35:38.572Z,9.77
2023-03-19T12:38:24.115Z,15.55
2023-03-19T12:41:00.994Z,9.20
2023-03-19T12:43:53.296Z,13.27
2023-03-19T12:46:40.357Z,16.10
2023-03-19T12:49:26.279Z,11.23
2023-03-19T12:51:57.165Z,10.73
2023-03-19T12:54:36.367Z,12.48
2023-03-19T12:57:15.016Z,13.32
2023-03-19T13:00:03.082Z,9.32
2023-03-19T13:02:46.751Z,10.77
2023-03-19T13:05:25.367Z,10.13
2023-03-19T13:07:59.138Z,11.13
2023-03-19T13:10:26.882Z,13.38
2023-03-19T13:12:54.206Z,9.85
2023-03-19T13:15:33.905Z,10.05
2023-03-19T13:18:08.799Z,15.75
2023-03-19T13:20:50.836Z,8.65
2023-03-19T13:23:24.476Z,9.63
2023-03-19T13:25:52.907Z,16.73
2023-03-19T13:28:36.845Z,9.10
2023-03-19T13:31:04.731Z,11.20
2023-03-19T13:33:32.605Z,19.00
2023-03-19T13:36:03.603Z,9.85
2023-03-19T13:38:48.057Z,8.63
2023-03-19T13:41:33.167Z,19.00
2023-03-19T13:44:00.865Z,13.23
2023-03-19T13:46:41.767Z,7.93
2023-03-19T13:49:29.656Z,9.80
2023-03-19T13:52:16.608Z,11.85
2023-03-19T13:54:45.889Z,14.55
2023-03-19T13:57:16.460Z,9.43
2023-03-19T13:59:46.711Z,10.63
2023-03-19T14:02:22.363Z,10.65
2023-03-19T14:05:16.971Z,7.28
2023-03-19T14:07:48.553Z,10.18
2023-03-19T14:10:27.229Z,10.90
2023-03-19T14:13:08.688Z,8.60
2023-03-19T14:15:49.169Z,8.80
2023-03-19T14:18:19.413Z,8.02
2023-03-19T14:20:58.967Z,11.30
2023-03-19T14:23:39.578Z,15.18
2023-03-19T14:26:16.887Z,13.30
2023-03-19T14:29:05.595Z,11.38
2023-03-19T14:31:35.875Z,9.52
2023-03-19T14:34:08.110Z,10.68
2023-03-19T14:36:38.584Z,7.17
2023-03-19T14:39:22.657Z,7.55
2023-03-19T14:41:52.516Z,10.30
2023-03-19T14:44:44.287Z,12.73
2023-03-19T14:47:35.292Z,13.00
2023-03-19T14:50:27.686Z,9.48
2023-03-19T14:53:22.507Z,13.18
2023-03-19T14:55:51.231Z,9.57
2023-03-19T14:58:19.702Z,15.82
2023-03-19T15:00:49.670Z,11.73
2023-03-19T15:03:43.150Z,10.35
2023-03-19T15:06:13.058Z,7.95
2023-03-19T15:08:40.805Z,14.80
2023-03-19T15:11:13.504Z,12.45
2023-03-19T15:14:04.790Z,16.30
2023-03-19T15:16:37.651Z,9.70
2023-03-19T15:19:09.094Z,8.23
2023-03-19T15:21:37.226Z,12.10
2023-03-19T15:24:04.688Z,9.15
2023-03-19T15:26:33.180Z,11.15
2023-03-19T15:29:00.214Z,9.32
2023-03-19T15:31:54.992Z,12.77
2023-03-19T15:34:31.107Z,11.05
2023-03-19T15:37:10.466Z,8.77
2023-03-19T15:39:41.772Z,8.80
2023-03-19T15:42:08.897Z,8.25
2023-03-19T15:44:44.724Z,10.05
2023-03-19T15:47:16.525Z,4.45
2023-03-19T15:49:46.405Z,7.88
2023-03-19T15:52:15.260Z,14.23
2023-03-19T15:54:42.360Z,10.02
2023-03-19T15:57:10.206Z,11.25
2023-03-19T15:59:36.974Z,6.20
2023-03-19T16:02:29.987Z,10.85
2023-03-19T16:05:20.292Z,8.20
2023-03-19T16:07:44.436Z,6.40
2023-03-19T16:10:29.197Z,8.38
2023-03-19T16:12:56.319Z,5.45
2023-03-19T16:15:38.631Z,8.05
2023-03-19T16:18:20.503Z,6.73
2023-03-19T16:21:07.603Z,6.75
2023-03-19T16:23:37.471Z,6.20
2023-03-19T16:26:10.132Z,7.25
2023-03-19T16:28:44.103Z,8.73
2023-03-19T16:31:23.645Z,7.95
2023-03-19T16:33:52.545Z,9.65
2023-03-19T16:36:20.342Z,7.32
2023-03-19T16:38:56.109Z,6.68
2023-03-19T16:41:35.157Z,8.25
2023-03-19T16:44:18.626Z,9.60
2023-03-19T16:46:45.695Z,10.10
2023-03-19T16:49:12.414Z,4.97
2023-03-19T16:51:39.333Z,7.45
2023-03-19T16:54:06.339Z,10.80
2023-03-19T16:56:33.518Z,9.15
2023-03-19T16:59:02.746Z,10.65
2023-03-19T17:01:29.850Z,8.40
2023-03-19T17:03:56.644Z,8.93
2023-03-19T17:06:23.544Z,10.07
2023-03-19T17:08:50.374Z,8.15
2023-03-19T17:11:38.626Z,8.98
2023-03-19T17:14:06.365Z,7.88
2023-03-19T17:16:33.853Z,6.07
2023-03-19T17:19:00.684Z,5.68
2023-03-19T17:21:31.749Z,6.75
2023-03-19T17:24:00.549Z,11.50
2023-03-19T17:26:28.632Z,16.00
2023-03-19T17:28:56.372Z,7.53
2023-03-19T17:31:25.704Z,9.13
2023-03-19T17:33:57.645Z,5.72
2023-03-19T17:36:24.336Z,7.65
2023-03-19T17:38:51.201Z,9.77
2023-03-19T17:41:19.904Z,10.85
2023-03-19T17:43:47.849Z,8.55
2023-03-19T17:46:19.466Z,9.68
2023-03-19T17:48:47.652Z,6.75
2023-03-19T17:51:14.573Z,7.68
2023-03-19T17:53:41.685Z,8.32
2023-03-19T17:56:14.398Z,9.35
2023-03-19T17:58:41.134Z,12.23
2023-03-19T18:01:13.941Z,7.93
2023-03-19T18:03:40.796Z,8.77
2023-03-19T18:06:17.911Z,9.90
2023-03-19T18:08:45.492Z,9.93
2023-03-19T18:11:12.933Z,10.30
2023-03-19T18:13:39.972Z,8.95
2023-03-19T18:16:30.772Z,10.57
2023-03-19T18:19:01.975Z,7.40
2023-03-19T18:21:29.420Z,5.43
2023-03-19T18:23:57.221Z,4.40
2023-03-19T18:26:24.942Z,5.22
2023-03-19T18:28:51.763Z,5.63
2023-03-19T18:31:20.858Z,3.45
2023-03-19T18:33:56.749Z,5.32
2023-03-19T18:36:27.810Z,4.05
2023-03-19T18:38:55.460Z,3.25
2023-03-19T18:41:24.129Z,5.65
2023-03-19T18:44:04.414Z,3.40
2023-03-19T18:46:31.918Z,6.80
2023-03-19T18:49:04.051Z,4.65
2023-03-19T18:51:31.076Z,5.00
2023-03-19T18:53:57.813Z,5.03
2023-03-19T18:56:27.140Z,5.15
2023-03-19T18:58:55.319Z,4.07
2023-03-19T19:01:22.368Z,7.13
2023-03-19T19:03:49.539Z,5.80
2023-03-19T19:06:33.358Z,4.45
2023-03-19T19:09:11.703Z,3.08
2023-03-19T19:11:42.137Z,3.58
2023-03-19T19:14:18.165Z,4.95
2023-03-19T19:16:45.309Z,3.50
2023-03-19T19:19:22.208Z,4.40
2023-03-19T19:21:49.664Z,9.20
2023-03-19T19:24:17.651Z,6.45
2023-03-19T19:26:45.750Z,4.93
2023-03-19T19:29:20.567Z,5.88
2023-03-19T19:31:47.218Z,7.55
2023-03-19T19:34:17.600Z,8.55
2023-03-19T19:36:44.480Z,5.78
2023-03-19T19:39:11.182Z,5.13
2023-03-19T19:41:38.947Z,6.85
2023-03-19T19:44:06.137Z,7.63
2023-03-19T19:46:32.978Z,6.80
2023-03-19T19:48:59.858Z,11.10
2023-03-19T19:51:28.726Z,10.20
2023-03-19T19:53:55.777Z,8.43
2023-03-19T19:56:24.601Z,8.07
2023-03-19T19:58:53.645Z,9.38
2023-03-19T20:01:22.657Z,6.78
2023-03-19T20:03:50.151Z,6.15
2023-03-19T20:06:18.157Z,5.95
2023-03-19T20:08:45.400Z,8.07
2023-03-19T20:11:18.982Z,4.97
2023-03-19T20:13:51.440Z,4.38
2023-03-19T20:16:19.541Z,9.00
2023-03-19T20:18:47.547Z,8.25
2023-03-19T20:21:14.952Z,8.57
2023-03-19T20:23:45.096Z,5.20
2023-03-19T20:26:17.557Z,6.63
2023-03-19T20:28:44.802Z,8.40
2023-03-19T20:31:38.012Z,11.43
2023-03-19T20:34:04.702Z,14.50
2023-03-19T20:36:31.474Z,29.80
2023-03-19T20:38:58.376Z,19.23
2023-03-19T20:41:28.760Z,12.90
2023-03-19T20:43:56.045Z,9.95
2023-03-19T20:46:23.210Z,13.57
2023-03-19T20:48:50.114Z,11.45
2023-03-19T20:51:25.045Z,9.13
2023-03-19T20:53:52.639Z,8.80
2023-03-19T20:56:21.789Z,8.63
2023-03-19T20:58:48.452Z,5.82
2023-03-19T21:01:18.441Z,8.60
2023-03-19T21:03:45.276Z,10.50
2023-03-19T21:06:18.662Z,7.13
2023-03-19T21:08:48.066Z,7.85
2023-03-19T21:11:19.209Z,5.97
2023-03-19T21:13:50.444Z,11.77
2023-03-19T21:16:22.745Z,4.38
2023-03-19T21:18:49.782Z,8.40
2023-03-19T21:21:17.801Z,15.38
2023-03-19T21:23:53.928Z,17.40
2023-03-19T21:26:22.621Z,23.73
2023-03-19T21:28:51.830Z,12.00
2023-03-19T21:31:20.572Z,12.85
2023-03-19T21:33:49.283Z,13.57
2023-03-19T21:36:17.100Z,15.13
2023-03-19T21:38:44.398Z,13.15
2023-03-19T21:41:28.385Z,18.52
2023-03-19T21:43:57.631Z,11.65
2023-03-19T21:46:27.034Z,21.80
2023-03-19T21:48:55.012Z,16.40
2023-03-19T21:51:22.901Z,11.43
2023-03-19T21:53:49.662Z,12.38
2023-03-19T21:56:32.577Z,14.00
2023-03-19T21:59:06.223Z,11.95
2023-03-19T22:01:32.960Z,17.40
2023-03-19T22:03:59.736Z,12.10
2023-03-19T22:06:26.457Z,10.63
2023-03-19T22:08:54.344Z,13.13
2023-03-19T22:11:25.996Z,18.10
2023-03-19T22:13:52.760Z,18.50
2023-03-19T22:16:24.561Z,16.95
2023-03-19T22:18:52.606Z,12.80
2023-03-19T22:21:21.789Z,12.93
2023-03-19T22:23:48.863Z,11.68
2023-03-19T22:26:29.253Z,10.27
2023-03-19T22:28:57.683Z,7.85
2023-03-19T22:31:24.909Z,11.90
2023-03-19T22:33:51.930Z,12.48
2023-03-19T22:36:18.621Z,13.02
2023-03-19T22:38:46.985Z,19.25
2023-03-19T22:41:22.088Z,14.65
2023-03-19T22:43:48.886Z,20.15
2023-03-19T22:46:17.617Z,12.40
2023-03-19T22:48:47.932Z,17.98
2023-03-19T22:51:17.208Z,17.42
2023-03-19T22:53:44.922Z,16.40
2023-03-19T22:56:12.112Z,14.10
2023-03-19T22:58:38.790Z,14.95
2023-03-19T23:01:29.498Z,12.82
2023-03-19T23:03:57.077Z,36.20
2023-03-19T23:06:31.083Z,43.08
2023-03-19T23:08:58.171Z,35.42
2023-03-19T23:11:24.837Z,50.63
2023-03-19T23:13:51.688Z,32.83
2023-03-19T23:16:23.458Z,30.52
2023-03-19T23:18:50.877Z,18.30
2023-03-19T23:21:18.725Z,17.15
2023-03-19T23:23:45.654Z,26.75
2023-03-19T23:26:29.490Z,23.95
2023-03-19T23:28:58.373Z,16.80
2023-03-19T23:31:25.098Z,21.05
2023-03-19T23:33:52.142Z,40.25
2023-03-19T23:36:18.862Z,23.63
2023-03-19T23:38:46.731Z,20.40
2023-03-19T23:41:25.340Z,15.23
2023-03-19T23:44:01.820Z,19.40
2023-03-19T23:46:33.807Z,15.20
2023-03-19T23:49:01.710Z,16.13
2023-03-19T23:51:28.396Z,20.58
2023-03-19T23:53:55.277Z,20.80
2023-03-19T23:56:24.484Z,14.65
2023-03-19T23:58:52.556Z,12.88
